createdAt,value
2023-10-16T00:02:19.544Z,2.53
2023-10-16T00:04:46.624Z,3.20
2023-10-16T00:07:14.805Z,2.40
2023-10-16T00:09:42.260Z,2.95
2023-10-16T00:12:09.602Z,2.85
2023-10-16T00:14:37.506Z,3.10
2023-10-16T00:17:05.219Z,2.38
2023-10-16T00:19:32.259Z,2.53
2023-10-16T00:21:59.293Z,3.30
2023-10-16T00:24:26.708Z,1.88
2023-10-16T00:26:53.968Z,2.40
2023-10-16T00:29:21.121Z,2.10
2023-10-16T00:31:48.420Z,2.10
2023-10-16T00:34:15.461Z,2.65
2023-10-16T00:36:42.553Z,2.10
2023-10-16T00:39:09.666Z,1.90
2023-10-16T00:41:36.707Z,2.20
2023-10-16T00:44:03.914Z,2.22
2023-10-16T00:46:33.014Z,2.50
2023-10-16T00:49:00.730Z,2.58
2023-10-16T00:51:39.402Z,2.20
2023-10-16T00:54:14.564Z,2.92
2023-10-16T00:56:41.781Z,2.85
2023-10-16T00:59:09.083Z,3.03
2023-10-16T01:01:36.992Z,2.33
2023-10-16T01:04:04.332Z,2.20
2023-10-16T01:06:31.421Z,2.30
2023-10-16T01:08:58.638Z,2.22
2023-10-16T01:11:25.693Z,1.98
2023-10-16T01:13:52.730Z,3.08
2023-10-16T01:16:20.536Z,2.50
2023-10-16T01:18:48.051Z,2.10
2023-10-16T01:21:15.297Z,2.35
2023-10-16T01:23:43.056Z,2.60
2023-10-16T01:26:10.132Z,1.88
2023-10-16T01:28:37.212Z,2.53
2023-10-16T01:31:04.423Z,1.85
2023-10-16T01:33:31.565Z,2.10
2023-10-16T01:35:58.710Z,2.35
2023-10-16T01:38:25.926Z,2.30
2023-10-16T01:40:54.468Z,2.13
2023-10-16T01:43:21.558Z,2.28
2023-10-16T01:45:48.699Z,2.40
2023-10-16T01:48:15.838Z,2.33
2023-10-16T01:50:42.922Z,2.75
2023-10-16T01:53:10.065Z,2.33
2023-10-16T01:55:37.120Z,1.85
2023-10-16T01:58:04.385Z,2.25
2023-10-16T02:00:32.682Z,2.53
2023-10-16T02:02:59.813Z,2.20
2023-10-16T02:05:26.924Z,2.57
2023-10-16T02:07:54.029Z,2.53
2023-10-16T02:10:21.081Z,1.95
2023-10-16T02:12:48.206Z,1.95
2023-10-16T02:15:15.368Z,2.65
2023-10-16T02:17:42.799Z,2.13
2023-10-16T02:20:10.143Z,1.90
2023-10-16T02:22:37.263Z,2.78
2023-10-16T02:25:04.561Z,2.17
2023-10-16T02:27:31.657Z,2.03
2023-10-16T02:29:58.769Z,2.53
2023-10-16T02:32:25.869Z,2.67
2023-10-16T02:34:53.031Z,2.45
2023-10-16T02:37:20.323Z,2.05
2023-10-16T02:39:47.423Z,2.60
2023-10-16T02:42:14.557Z,1.97
2023-10-16T02:44:42.243Z,2.50
2023-10-16T02:47:10.586Z,2.33
2023-10-16T02:49:37.680Z,2.00
2023-10-16T02:52:04.976Z,2.50
2023-10-16T02:54:32.071Z,2.10
2023-10-16T02:56:59.138Z,2.22
2023-10-16T02:59:27.312Z,2.13
2023-10-16T03:01:54.617Z,2.85
2023-10-16T03:04:21.726Z,2.38
2023-10-16T03:06:48.855Z,1.73
2023-10-16T03:09:15.900Z,1.98
2023-10-16T03:11:42.934Z,1.88
2023-10-16T03:14:10.008Z,2.28
2023-10-16T03:16:37.094Z,2.50
2023-10-16T03:19:04.144Z,1.80
2023-10-16T03:21:31.262Z,2.00
2023-10-16T03:23:58.399Z,2.20
2023-10-16T03:26:25.523Z,1.60
2023-10-16T03:28:57.529Z,1.77
2023-10-16T03:31:25.798Z,2.43
2023-10-16T03:33:53.166Z,2.03
2023-10-16T03:36:20.282Z,1.60
2023-10-16T03:38:47.324Z,2.50
2023-10-16T03:41:14.380Z,2.47
2023-10-16T03:43:41.469Z,1.70
2023-10-16T03:46:08.556Z,2.65
2023-10-16T03:48:35.635Z,2.28
2023-10-16T03:51:02.759Z,2.03
2023-10-16T03:53:29.794Z,1.77
2023-10-16T03:55:57.214Z,1.80
2023-10-16T03:58:24.502Z,2.55
2023-10-16T04:00:51.589Z,2.25
2023-10-16T04:03:22.755Z,2.35
2023-10-16T04:05:51.019Z,2.55
2023-10-16T04:08:19.994Z,2.10
2023-10-16T04:10:48.804Z,2.25
2023-10-16T04:13:17.370Z,2.72
2023-10-16T04:15:47.561Z,2.40
2023-10-16T04:18:15.456Z,2.67
2023-10-16T04:20:42.511Z,2.10
2023-10-16T04:23:09.555Z,2.50
2023-10-16T04:25:36.604Z,2.40
2023-10-16T04:28:03.799Z,2.25
2023-10-16T04:30:30.892Z,2.58
2023-10-16T04:32:58.056Z,2.80
2023-10-16T04:35:25.288Z,6.63
2023-10-16T04:37:52.752Z,9.13
2023-10-16T04:40:19.817Z,7.65
2023-10-16T04:42:46.951Z,6.68
2023-10-16T04:45:18.743Z,8.17
2023-10-16T04:47:50.925Z,3.00
2023-10-16T04:50:18.065Z,2.95
2023-10-16T04:52:45.124Z,4.55
2023-10-16T04:55:12.247Z,2.80
2023-10-16T04:57:39.336Z,2.97
2023-10-16T05:00:06.972Z,3.88
2023-10-16T05:02:34.122Z,2.67
2023-10-16T05:05:04.296Z,3.22
2023-10-16T05:07:31.351Z,2.92
2023-10-16T05:09:58.462Z,4.30
2023-10-16T05:12:25.592Z,5.32
2023-10-16T05:14:52.700Z,4.13
2023-10-16T05:17:19.814Z,3.38
2023-10-16T05:19:47.087Z,2.90
2023-10-16T05:22:14.522Z,3.20
2023-10-16T05:24:41.690Z,2.80
2023-10-16T05:27:08.794Z,3.63
2023-10-16T05:29:50.095Z,3.53
2023-10-16T05:32:19.325Z,3.05
2023-10-16T05:34:46.453Z,3.07
2023-10-16T05:37:13.533Z,2.72
2023-10-16T05:39:40.684Z,2.50
2023-10-16T05:42:07.758Z,2.13
2023-10-16T05:44:34.821Z,4.65
2023-10-16T05:47:01.928Z,10.23
2023-10-16T05:49:29.297Z,4.95
2023-10-16T05:51:56.369Z,4.20
2023-10-16T05:54:23.534Z,4.78
2023-10-16T05:56:50.627Z,5.18
2023-10-16T05:59:17.876Z,5.50
2023-10-16T06:01:45.079Z,2.70
2023-10-16T06:04:12.397Z,3.22
2023-10-16T06:06:39.601Z,2.95
2023-10-16T06:09:06.720Z,2.85
2023-10-16T06:11:34.094Z,2.53
2023-10-16T06:14:01.172Z,4.00
2023-10-16T06:16:28.330Z,2.88
2023-10-16T06:18:55.647Z,3.20
2023-10-16T06:21:22.830Z,2.60
2023-10-16T06:23:50.650Z,2.43
2023-10-16T06:26:19.376Z,3.15
2023-10-16T06:28:46.467Z,3.72
2023-10-16T06:31:13.665Z,2.80
2023-10-16T06:33:40.837Z,2.88
2023-10-16T06:36:08.028Z,4.57
2023-10-16T06:38:35.116Z,3.67
2023-10-16T06:41:02.167Z,4.07
2023-10-16T06:43:29.234Z,3.50
2023-10-16T06:45:56.500Z,3.15
2023-10-16T06:48:23.810Z,3.77
2023-10-16T06:50:50.910Z,3.95
2023-10-16T06:53:18.006Z,2.95
2023-10-16T06:55:45.085Z,2.50
2023-10-16T06:58:12.422Z,3.53
2023-10-16T07:00:39.611Z,3.37
2023-10-16T07:03:07.007Z,3.83
2023-10-16T07:05:34.121Z,4.07
2023-10-16T07:08:01.287Z,4.30
2023-10-16T07:10:28.360Z,3.35
2023-10-16T07:12:55.488Z,3.60
2023-10-16T07:15:22.903Z,3.38
2023-10-16T07:17:50.017Z,5.13
2023-10-16T07:20:17.149Z,6.43
2023-10-16T07:22:44.255Z,5.97
2023-10-16T07:25:11.481Z,5.40
2023-10-16T07:27:38.689Z,6.82
2023-10-16T07:30:06.591Z,9.52
2023-10-16T07:32:33.674Z,9.05
2023-10-16T07:35:00.742Z,8.73
2023-10-16T07:37:27.823Z,11.30
2023-10-16T07:39:54.930Z,9.85
2023-10-16T07:42:22.007Z,9.38
2023-10-16T07:44:49.397Z,8.75
2023-10-16T07:47:16.560Z,8.35
2023-10-16T07:49:43.623Z,10.43
2023-10-16T07:52:10.773Z,5.78
2023-10-16T07:54:37.975Z,7.53
2023-10-16T07:57:05.127Z,7.97
2023-10-16T07:59:32.457Z,11.05
2023-10-16T08:01:59.605Z,5.27
2023-10-16T08:04:27.143Z,7.13
2023-10-16T08:06:59.075Z,6.80
2023-10-16T08:09:26.401Z,7.82
2023-10-16T08:11:54.993Z,5.10
2023-10-16T08:14:22.209Z,6.87
2023-10-16T08:16:49.421Z,6.40
2023-10-16T08:19:16.729Z,4.85
2023-10-16T08:21:44.451Z,5.22
2023-10-16T08:24:13.372Z,5.65
2023-10-16T08:26:42.083Z,5.83
2023-10-16T08:29:09.348Z,5.50
2023-10-16T08:31:36.453Z,4.38
2023-10-16T08:34:03.718Z,5.03
2023-10-16T08:36:30.965Z,6.93
2023-10-16T08:38:58.093Z,5.80
2023-10-16T08:41:30.575Z,6.15
2023-10-16T08:44:01.388Z,5.63
2023-10-16T08:46:28.503Z,7.28
2023-10-16T08:48:55.854Z,6.00
2023-10-16T08:51:22.992Z,5.27
2023-10-16T08:53:50.279Z,5.78
2023-10-16T08:56:18.748Z,6.55
2023-10-16T08:58:47.066Z,5.65
2023-10-16T09:01:15.942Z,5.72
2023-10-16T09:04:03.910Z,6.00
2023-10-16T09:06:36.373Z,5.95
2023-10-16T09:09:03.946Z,5.88
2023-10-16T09:11:31.441Z,5.65
2023-10-16T09:13:59.686Z,5.05
2023-10-16T09:16:26.879Z,4.87
2023-10-16T09:18:54.896Z,4.93
2023-10-16T09:21:22.318Z,5.00
2023-10-16T09:23:49.786Z,5.35
2023-10-16T09:26:17.075Z,3.47
2023-10-16T09:28:44.534Z,4.70
2023-10-16T09:31:13.151Z,4.50
2023-10-16T09:33:41.163Z,4.47
2023-10-16T09:36:15.723Z,4.43
2023-10-16T09:38:43.736Z,4.22
2023-10-16T09:41:10.857Z,4.07
2023-10-16T09:43:38.686Z,4.68
2023-10-16T09:46:06.039Z,4.68
2023-10-16T09:48:33.573Z,4.93
2023-10-16T09:51:01.946Z,3.88
2023-10-16T09:53:29.048Z,4.07
2023-10-16T09:56:00.373Z,3.80
2023-10-16T09:58:28.309Z,3.95
2023-10-16T10:00:55.724Z,3.85
2023-10-16T10:03:23.184Z,3.03
2023-10-16T10:05:51.977Z,4.43
2023-10-16T10:08:38.752Z,3.47
2023-10-16T10:11:22.301Z,4.05
2023-10-16T10:13:58.318Z,4.05
2023-10-16T10:16:28.673Z,3.80
2023-10-16T10:18:55.885Z,3.40
2023-10-16T10:21:23.019Z,3.90
2023-10-16T10:23:50.159Z,4.35
2023-10-16T10:26:19.130Z,3.60
2023-10-16T10:28:46.703Z,3.90
2023-10-16T10:31:14.219Z,4.33
2023-10-16T10:33:43.972Z,3.47
2023-10-16T10:36:33.375Z,5.00
2023-10-16T10:39:22.120Z,4.30
2023-10-16T10:41:59.626Z,4.20
2023-10-16T10:44:38.003Z,4.47
2023-10-16T10:47:21.138Z,3.97
2023-10-16T10:49:50.325Z,4.90
2023-10-16T10:52:20.264Z,4.80
2023-10-16T10:54:56.157Z,4.72
2023-10-16T10:57:24.035Z,4.43
2023-10-16T10:59:51.436Z,4.30
2023-10-16T11:02:18.551Z,4.45
2023-10-16T11:04:53.443Z,5.40
2023-10-16T11:07:30.812Z,5.32
2023-10-16T11:09:58.782Z,5.97
2023-10-16T11:12:26.339Z,5.50
2023-10-16T11:14:56.498Z,5.20
2023-10-16T11:17:33.948Z,5.13
2023-10-16T11:20:02.082Z,5.25
2023-10-16T11:22:29.143Z,4.47
2023-10-16T11:24:56.890Z,4.88
2023-10-16T11:27:24.048Z,6.43
2023-10-16T11:29:51.245Z,5.55
2023-10-16T11:32:18.524Z,4.32
2023-10-16T11:34:47.240Z,4.67
2023-10-16T11:37:15.449Z,4.80
2023-10-16T11:39:43.850Z,4.55
2023-10-16T11:42:11.188Z,4.88
2023-10-16T11:44:38.445Z,5.22
2023-10-16T11:47:06.367Z,5.07
2023-10-16T11:49:35.694Z,6.18
2023-10-16T11:52:05.208Z,3.90
2023-10-16T11:54:32.458Z,5.35
2023-10-16T11:56:59.951Z,5.53
2023-10-16T11:59:28.276Z,4.33
2023-10-16T12:02:03.387Z,4.88
2023-10-16T12:04:32.977Z,4.35
2023-10-16T12:07:00.722Z,4.53
2023-10-16T12:09:27.841Z,4.32
2023-10-16T12:11:55.087Z,4.50
2023-10-16T12:14:22.180Z,4.68
2023-10-16T12:16:49.375Z,4.57
2023-10-16T12:19:18.141Z,6.47
2023-10-16T12:21:46.189Z,4.72
2023-10-16T12:24:13.288Z,5.37
2023-10-16T12:26:41.173Z,4.40
2023-10-16T12:29:08.785Z,5.97
2023-10-16T12:31:39.782Z,4.38
2023-10-16T12:34:07.234Z,4.82
2023-10-16T12:36:34.571Z,4.77
2023-10-16T12:39:01.695Z,3.97
2023-10-16T12:41:28.910Z,3.78
2023-10-16T12:43:55.974Z,4.18
2023-10-16T12:46:23.112Z,5.05
2023-10-16T12:48:50.436Z,4.80
2023-10-16T12:51:17.629Z,4.10
2023-10-16T12:53:44.682Z,5.28
2023-10-16T12:56:11.932Z,4.25
2023-10-16T12:58:38.996Z,4.10
2023-10-16T13:01:07.663Z,4.03
2023-10-16T13:03:35.494Z,4.35
2023-10-16T13:06:02.829Z,4.22
2023-10-16T13:08:29.928Z,4.40
2023-10-16T13:10:57.007Z,4.53
2023-10-16T13:13:24.094Z,5.17
2023-10-16T13:15:51.358Z,4.93
2023-10-16T13:18:22.745Z,4.97
2023-10-16T13:20:49.904Z,3.88
2023-10-16T13:23:21.457Z,4.70
2023-10-16T13:25:54.659Z,4.20
2023-10-16T13:28:21.690Z,4.75
2023-10-16T13:30:49.242Z,4.43
2023-10-16T13:33:16.609Z,4.40
2023-10-16T13:35:43.692Z,4.68
2023-10-16T13:38:11.109Z,4.53
2023-10-16T13:40:38.908Z,4.38
2023-10-16T13:43:06.278Z,4.63
2023-10-16T13:45:33.341Z,4.05
2023-10-16T13:48:00.482Z,4.25
2023-10-16T13:50:27.689Z,3.73
2023-10-16T13:52:55.296Z,3.53
2023-10-16T13:55:26.404Z,4.88
2023-10-16T13:57:53.557Z,4.75
2023-10-16T14:00:21.865Z,4.10
2023-10-16T14:02:49.017Z,5.20
2023-10-16T14:05:16.214Z,5.68
2023-10-16T14:07:43.311Z,5.75
2023-10-16T14:10:10.572Z,4.78
2023-10-16T14:12:37.683Z,4.20
2023-10-16T14:15:05.077Z,4.50
2023-10-16T14:17:32.220Z,4.78
2023-10-16T14:19:59.259Z,3.85
2023-10-16T14:22:26.331Z,3.70
2023-10-16T14:24:53.460Z,5.70
2023-10-16T14:27:20.574Z,5.80
2023-10-16T14:29:47.618Z,5.03
2023-10-16T14:32:14.995Z,4.30
2023-10-16T14:34:42.333Z,4.32
2023-10-16T14:37:09.434Z,4.70
2023-10-16T14:39:36.642Z,4.73
2023-10-16T14:42:03.914Z,4.40
2023-10-16T14:44:31.043Z,4.03
2023-10-16T14:46:58.573Z,4.28
2023-10-16T14:49:25.688Z,3.67
2023-10-16T14:51:53.223Z,4.13
2023-10-16T14:54:21.052Z,5.22
2023-10-16T14:56:48.172Z,4.07
2023-10-16T14:59:28.505Z,4.78
2023-10-16T15:01:56.543Z,4.68
2023-10-16T15:04:24.053Z,4.37
2023-10-16T15:06:51.547Z,3.83
2023-10-16T15:09:18.659Z,3.38
2023-10-16T15:11:46.800Z,3.78
2023-10-16T15:14:14.173Z,4.75
2023-10-16T15:16:41.445Z,4.70
2023-10-16T15:19:09.438Z,4.15
2023-10-16T15:21:37.379Z,4.47
2023-10-16T15:24:05.064Z,4.68
2023-10-16T15:26:32.860Z,4.97
2023-10-16T15:29:00.176Z,4.57
2023-10-16T15:31:27.923Z,5.45
2023-10-16T15:33:55.187Z,4.40
2023-10-16T15:36:22.570Z,3.67
2023-10-16T15:38:51.313Z,4.55
2023-10-16T15:41:18.434Z,4.73
2023-10-16T15:43:48.382Z,4.40
2023-10-16T15:46:27.202Z,5.03
2023-10-16T15:48:54.734Z,4.22
2023-10-16T15:51:22.323Z,4.90
2023-10-16T15:53:49.380Z,4.27
2023-10-16T15:56:16.517Z,4.13
2023-10-16T15:58:43.584Z,4.40
2023-10-16T16:01:10.939Z,4.38
2023-10-16T16:03:39.109Z,3.83
2023-10-16T16:06:18.669Z,4.00
2023-10-16T16:08:47.421Z,4.10
2023-10-16T16:11:14.681Z,5.15
2023-10-16T16:13:45.652Z,4.60
2023-10-16T16:16:14.043Z,3.80
2023-10-16T16:18:41.508Z,3.63
2023-10-16T16:21:08.745Z,4.25
2023-10-16T16:23:35.859Z,4.97
2023-10-16T16:26:03.390Z,4.00
2023-10-16T16:28:30.478Z,3.88
2023-10-16T16:30:57.596Z,3.20
2023-10-16T16:33:24.790Z,4.88
2023-10-16T16:35:52.040Z,3.92
2023-10-16T16:38:19.229Z,3.75
2023-10-16T16:40:46.838Z,4.05
2023-10-16T16:43:13.920Z,3.67
2023-10-16T16:45:41.800Z,4.15
2023-10-16T16:48:09.014Z,4.18
2023-10-16T16:50:36.256Z,3.15
2023-10-16T16:53:03.418Z,3.78
2023-10-16T16:55:30.488Z,3.90
2023-10-16T16:57:57.597Z,4.55
2023-10-16T17:00:24.777Z,3.80
2023-10-16T17:02:51.930Z,4.88
2023-10-16T17:05:19.015Z,4.55
2023-10-16T17:07:46.127Z,4.40
2023-10-16T17:10:14.267Z,3.80
2023-10-16T17:12:42.603Z,3.30
2023-10-16T17:15:11.601Z,3.25
2023-10-16T17:17:41.882Z,5.93
2023-10-16T17:20:13.480Z,4.60
2023-10-16T17:25:17.205Z,3.80
2023-10-16T17:27:44.431Z,3.42
2023-10-16T17:30:11.799Z,4.22
2023-10-16T17:32:38.959Z,3.97
2023-10-16T17:35:07.433Z,3.92
2023-10-16T17:37:34.563Z,4.63
2023-10-16T17:40:01.929Z,3.15
2023-10-16T17:42:29.638Z,5.05
2023-10-16T17:44:56.706Z,4.40
2023-10-16T17:47:23.841Z,5.35
2023-10-16T17:49:50.963Z,4.70
2023-10-16T17:52:18.035Z,4.85
2023-10-16T17:54:45.206Z,5.00
2023-10-16T17:57:12.295Z,4.17
2023-10-16T17:59:39.417Z,4.05
2023-10-16T18:02:06.903Z,4.43
2023-10-16T18:04:34.030Z,3.88
2023-10-16T18:07:01.408Z,4.88
2023-10-16T18:09:28.650Z,5.87
2023-10-16T18:11:56.650Z,5.18
2023-10-16T18:14:24.206Z,6.18
2023-10-16T18:16:52.028Z,7.65
2023-10-16T18:19:19.053Z,6.05
2023-10-16T18:21:46.315Z,7.40
2023-10-16T18:24:13.509Z,5.57
2023-10-16T18:26:40.662Z,5.90
2023-10-16T18:29:07.724Z,4.50
2023-10-16T18:31:34.864Z,5.78
2023-10-16T18:34:01.950Z,5.77
2023-10-16T18:36:29.039Z,5.22
2023-10-16T18:38:56.168Z,5.35
2023-10-16T18:41:23.270Z,3.83
2023-10-16T18:43:50.355Z,4.63
2023-10-16T18:46:17.876Z,4.30
2023-10-16T18:48:44.980Z,3.55
2023-10-16T18:51:12.310Z,3.58
2023-10-16T18:53:39.609Z,3.45
2023-10-16T18:56:06.653Z,3.75
2023-10-16T18:58:33.716Z,3.80
2023-10-16T19:01:07.094Z,2.88
2023-10-16T19:03:34.563Z,4.22
2023-10-16T19:06:03.338Z,3.72
2023-10-16T19:08:30.799Z,3.55
2023-10-16T19:11:01.556Z,3.83
2023-10-16T19:13:32.925Z,3.50
2023-10-16T19:16:00.985Z,3.78
2023-10-16T19:18:31.596Z,3.70
2023-10-16T19:21:01.130Z,4.03
2023-10-16T19:23:30.635Z,3.67
2023-10-16T19:26:05.726Z,3.08
2023-10-16T19:28:33.507Z,4.00
2023-10-16T19:31:04.189Z,3.47
2023-10-16T19:33:31.471Z,3.60
2023-10-16T19:35:58.620Z,3.60
2023-10-16T19:38:25.707Z,5.55
2023-10-16T19:41:02.184Z,5.40
2023-10-16T19:43:29.314Z,5.07
2023-10-16T19:45:56.399Z,6.40
2023-10-16T19:48:24.356Z,5.87
2023-10-16T19:50:51.497Z,5.07
2023-10-16T19:53:18.586Z,5.57
2023-10-16T19:55:47.955Z,5.55
2023-10-16T19:58:15.054Z,5.75
2023-10-16T20:00:42.168Z,5.37
2023-10-16T20:03:10.097Z,6.03
2023-10-16T20:05:40.515Z,6.18
2023-10-16T20:08:08.192Z,6.10
2023-10-16T20:10:35.495Z,4.82
2023-10-16T20:13:02.727Z,5.80
2023-10-16T20:15:30.240Z,5.03
2023-10-16T20:17:57.985Z,5.38
2023-10-16T20:20:25.278Z,4.95
2023-10-16T20:22:54.460Z,6.85
2023-10-16T20:25:21.942Z,6.07
2023-10-16T20:27:49.893Z,6.20
2023-10-16T20:30:17.609Z,6.97
2023-10-16T20:32:45.050Z,7.03
2023-10-16T20:35:12.177Z,8.00
2023-10-16T20:37:39.222Z,6.67
2023-10-16T20:40:06.979Z,7.88
2023-10-16T20:42:34.219Z,9.13
2023-10-16T20:45:01.316Z,7.60
2023-10-16T20:47:28.592Z,9.27
2023-10-16T20:49:56.065Z,8.30
2023-10-16T20:52:23.175Z,7.55
2023-10-16T20:54:50.315Z,8.77
2023-10-16T20:57:17.554Z,8.88
2023-10-16T20:59:44.673Z,8.75
2023-10-16T21:02:12.099Z,8.90
2023-10-16T21:04:39.438Z,8.07
2023-10-16T21:07:06.484Z,8.25
2023-10-16T21:09:33.565Z,7.95
2023-10-16T21:12:00.679Z,8.55
2023-10-16T21:14:27.953Z,7.97
2023-10-16T21:16:55.194Z,8.77
2023-10-16T21:19:22.249Z,8.88
2023-10-16T21:21:49.288Z,8.82
2023-10-16T21:24:16.469Z,9.07
2023-10-16T21:26:43.573Z,9.07
2023-10-16T21:29:10.646Z,9.30
2023-10-16T21:31:37.786Z,8.50
2023-10-16T21:34:04.936Z,8.75
2023-10-16T21:36:31.977Z,8.32
2023-10-16T21:38:59.389Z,11.07
2023-10-16T21:41:26.511Z,8.43
2023-10-16T21:43:53.574Z,8.48
2023-10-16T21:46:21.089Z,8.30
2023-10-16T21:48:48.241Z,8.85
2023-10-16T21:51:15.381Z,9.23
2023-10-16T21:53:42.520Z,9.32
2023-10-16T21:56:09.580Z,9.23
2023-10-16T21:58:36.730Z,9.25
2023-10-16T22:01:03.940Z,8.98
2023-10-16T22:03:31.163Z,10.20
2023-10-16T22:05:58.437Z,8.85
2023-10-16T22:08:25.506Z,9.38
2023-10-16T22:10:52.589Z,8.52
2023-10-16T22:13:19.637Z,9.10
2023-10-16T22:15:46.757Z,10.00
2023-10-16T22:18:13.979Z,9.23
2023-10-16T22:20:41.231Z,8.98
2023-10-16T22:23:08.296Z,8.95
2023-10-16T22:25:35.487Z,9.13
2023-10-16T22:28:03.413Z,9.07
2023-10-16T22:30:30.510Z,7.25
2023-10-16T22:32:57.776Z,8.45
2023-10-16T22:35:24.937Z,8.07
2023-10-16T22:37:52.656Z,7.65
2023-10-16T22:40:19.852Z,7.70
2023-10-16T22:42:47.062Z,8.10
2023-10-16T22:45:14.332Z,8.40
2023-10-16T22:47:41.599Z,8.00
2023-10-16T22:50:09.000Z,8.32
2023-10-16T22:52:36.346Z,8.10
2023-10-16T22:55:03.467Z,7.63
2023-10-16T22:57:30.612Z,7.15
2023-10-16T22:59:57.800Z,7.90
2023-10-16T23:02:25.048Z,8.05
2023-10-16T23:04:52.136Z,7.60
2023-10-16T23:07:19.195Z,7.00
2023-10-16T23:09:48.043Z,7.75
2023-10-16T23:12:15.274Z,6.80
2023-10-16T23:14:43.093Z,6.32
2023-10-16T23:17:10.686Z,6.30
2023-10-16T23:19:40.968Z,7.05
2023-10-16T23:22:08.077Z,6.78
2023-10-16T23:24:35.160Z,5.97
2023-10-16T23:27:02.818Z,7.07
2023-10-16T23:29:30.306Z,5.67
2023-10-16T23:31:57.368Z,7.25
2023-10-16T23:34:24.453Z,6.22
2023-10-16T23:36:52.729Z,6.15
2023-10-16T23:39:19.880Z,6.15
2023-10-16T23:41:47.042Z,6.90
2023-10-16T23:44:14.862Z,6.60
2023-10-16T23:46:46.548Z,5.80
2023-10-16T23:49:13.755Z,5.28
2023-10-16T23:51:40.898Z,5.97
2023-10-16T23:54:08.043Z,6.50
2023-10-16T23:56:35.141Z,6.78
2023-10-16T23:59:02.269Z,5.72
